Terminal Aerodrome Forecast
Issued by NWS Upton, NY

Home | Current Version | Previous Version | Text Only | Print | Product List | Glossary On
Versions: 1 2 3 4 5 6 7 8 9 10 11 12 13 14 15 16 17 18 19 20 21 22 23 24 25 26 27 28 29 30 31 32 33 34 35 36
284
FTUS41 KOKX 252005 AAA
TAFEWR
TAF AMD
KEWR 252005Z 2520/2624 05010KT 3SM -DZ BR SCT004 OVC006
      TEMPO 2520/2521 1SM -DZ BR OVC004
     FM252100 05006KT 2SM -DZ BR OVC004
      TEMPO 2522/2602 5SM BR OVC006
     FM260200 VRB05KT 2SM +SHRA BR OVC004
      TEMPO 2603/2607 1SM TSRA SCT006 OVC015CB
     FM261000 30008KT 6SM -SHRA SCT007 BKN012
     FM261400 29012KT P6SM SCT015 BKN025
     FM261600 29014G24KT P6SM SCT025 BKN035=

USA.gov is the U.S. government's official web portal to all federal, state and local government web resources and services.